sensor_id;sensor_type;location;lat;lon;timestamp;P1;durP1;ratioP1;P2;durP2;ratioP2
51304;SDS011;37392;50.964;6.952;2023-01-28T00:00:31;5.80;;;3.85;;
51304;SDS011;37392;50.964;6.952;2023-01-28T00:02:57;6.40;;;3.95;;
51304;SDS011;37392;50.964;6.952;2023-01-28T00:05:24;4.55;;;3.20;;
51304;SDS011;37392;50.964;6.952;2023-01-28T00:07:50;6.97;;;3.72;;
51304;SDS011;37392;50.964;6.952;2023-01-28T00:10:16;6.80;;;3.47;;
51304;SDS011;37392;50.964;6.952;2023-01-28T00:12:42;8.57;;;4.70;;
51304;SDS011;37392;50.964;6.952;2023-01-28T00:15:09;6.32;;;4.03;;
51304;SDS011;37392;50.964;6.952;2023-01-28T00:17:35;7.35;;;3.95;;
51304;SDS011;37392;50.964;6.952;2023-01-28T00:20:02;7.53;;;4.40;;
51304;SDS011;37392;50.964;6.952;2023-01-28T00:22:29;10.18;;;4.15;;
51304;SDS011;37392;50.964;6.952;2023-01-28T00:24:55;7.13;;;4.32;;
51304;SDS011;37392;50.964;6.952;2023-01-28T00:27:21;12.57;;;5.35;;
51304;SDS011;37392;50.964;6.952;2023-01-28T00:29:46;6.90;;;5.03;;
51304;SDS011;37392;50.964;6.952;2023-01-28T00:32:12;8.57;;;5.65;;
51304;SDS011;37392;50.964;6.952;2023-01-28T00:34:38;11.00;;;5.78;;
51304;SDS011;37392;50.964;6.952;2023-01-28T00:37:03;12.57;;;7.18;;
51304;SDS011;37392;50.964;6.952;2023-01-28T00:39:29;11.70;;;6.00;;
51304;SDS011;37392;50.964;6.952;2023-01-28T00:41:54;14.43;;;5.85;;
51304;SDS011;37392;50.964;6.952;2023-01-28T00:44:20;20.40;;;9.20;;
51304;SDS011;37392;50.964;6.952;2023-01-28T00:46:46;10.20;;;5.95;;
51304;SDS011;37392;50.964;6.952;2023-01-28T00:49:12;17.10;;;9.77;;
51304;SDS011;37392;50.964;6.952;2023-01-28T00:51:37;11.73;;;5.65;;
51304;SDS011;37392;50.964;6.952;2023-01-28T00:54:03;17.05;;;5.70;;
51304;SDS011;37392;50.964;6.952;2023-01-28T00:56:29;8.90;;;5.70;;
51304;SDS011;37392;50.964;6.952;2023-01-28T00:58:55;11.15;;;5.95;;
51304;SDS011;37392;50.964;6.952;2023-01-28T01:01:22;11.60;;;5.60;;
51304;SDS011;37392;50.964;6.952;2023-01-28T01:03:50;9.40;;;5.55;;
51304;SDS011;37392;50.964;6.952;2023-01-28T01:06:31;7.75;;;4.88;;
51304;SDS011;37392;50.964;6.952;2023-01-28T01:09:03;12.85;;;5.53;;
51304;SDS011;37392;50.964;6.952;2023-01-28T01:11:31;9.57;;;6.03;;
51304;SDS011;37392;50.964;6.952;2023-01-28T01:13:57;9.43;;;6.15;;
51304;SDS011;37392;50.964;6.952;2023-01-28T01:16:28;11.23;;;6.03;;
51304;SDS011;37392;50.964;6.952;2023-01-28T01:18:57;13.48;;;5.72;;
51304;SDS011;37392;50.964;6.952;2023-01-28T01:21:24;9.20;;;5.93;;
51304;SDS011;37392;50.964;6.952;2023-01-28T01:23:52;11.63;;;6.25;;
51304;SDS011;37392;50.964;6.952;2023-01-28T01:26:18;11.02;;;6.10;;
51304;SDS011;37392;50.964;6.952;2023-01-28T01:28:44;11.95;;;6.70;;
51304;SDS011;37392;50.964;6.952;2023-01-28T01:31:11;9.70;;;6.32;;
51304;SDS011;37392;50.964;6.952;2023-01-28T01:33:42;14.68;;;6.97;;
51304;SDS011;37392;50.964;6.952;2023-01-28T01:36:11;10.82;;;7.05;;
51304;SDS011;37392;50.964;6.952;2023-01-28T01:38:38;18.10;;;7.95;;
51304;SDS011;37392;50.964;6.952;2023-01-28T01:41:05;10.73;;;6.28;;
51304;SDS011;37392;50.964;6.952;2023-01-28T01:46:22;8.52;;;5.40;;
51304;SDS011;37392;50.964;6.952;2023-01-28T01:49:23;9.90;;;5.20;;
51304;SDS011;37392;50.964;6.952;2023-01-28T01:51:59;20.23;;;9.15;;
51304;SDS011;37392;50.964;6.952;2023-01-28T01:54:33;9.70;;;6.05;;
51304;SDS011;37392;50.964;6.952;2023-01-28T01:57:01;11.57;;;7.00;;
51304;SDS011;37392;50.964;6.952;2023-01-28T01:59:30;10.10;;;6.00;;
51304;SDS011;37392;50.964;6.952;2023-01-28T02:01:58;23.38;;;10.40;;
51304;SDS011;37392;50.964;6.952;2023-01-28T02:04:28;13.32;;;7.20;;
51304;SDS011;37392;50.964;6.952;2023-01-28T02:06:59;18.15;;;8.73;;
51304;SDS011;37392;50.964;6.952;2023-01-28T02:09:27;21.98;;;10.68;;
51304;SDS011;37392;50.964;6.952;2023-01-28T02:11:59;12.90;;;8.10;;
51304;SDS011;37392;50.964;6.952;2023-01-28T02:14:34;21.45;;;8.85;;
51304;SDS011;37392;50.964;6.952;2023-01-28T02:17:13;13.80;;;7.87;;
51304;SDS011;37392;50.964;6.952;2023-01-28T02:19:44;15.93;;;8.77;;
51304;SDS011;37392;50.964;6.952;2023-01-28T02:25:39;20.98;;;9.10;;
51304;SDS011;37392;50.964;6.952;2023-01-28T02:31:30;18.80;;;9.00;;
51304;SDS011;37392;50.964;6.952;2023-01-28T02:36:45;16.27;;;8.98;;
51304;SDS011;37392;50.964;6.952;2023-01-28T02:39:18;15.13;;;8.60;;
51304;SDS011;37392;50.964;6.952;2023-01-28T02:41:56;18.95;;;9.98;;
51304;SDS011;37392;50.964;6.952;2023-01-28T02:44:28;24.65;;;12.05;;
51304;SDS011;37392;50.964;6.952;2023-01-28T02:46:54;18.10;;;9.13;;
51304;SDS011;37392;50.964;6.952;2023-01-28T02:49:48;17.38;;;9.65;;
51304;SDS011;37392;50.964;6.952;2023-01-28T02:52:31;19.08;;;10.52;;
51304;SDS011;37392;50.964;6.952;2023-01-28T02:55:38;23.00;;;10.35;;
51304;SDS011;37392;50.964;6.952;2023-01-28T03:04:14;19.70;;;11.07;;
51304;SDS011;37392;50.964;6.952;2023-01-28T03:06:48;18.98;;;10.18;;
51304;SDS011;37392;50.964;6.952;2023-01-28T03:09:20;16.63;;;10.13;;
51304;SDS011;37392;50.964;6.952;2023-01-28T03:15:00;21.67;;;10.93;;
51304;SDS011;37392;50.964;6.952;2023-01-28T03:18:02;19.48;;;11.20;;
51304;SDS011;37392;50.964;6.952;2023-01-28T03:21:07;16.90;;;10.65;;
51304;SDS011;37392;50.964;6.952;2023-01-28T03:27:22;23.92;;;12.93;;
51304;SDS011;37392;50.964;6.952;2023-01-28T03:30:18;19.20;;;10.95;;
51304;SDS011;37392;50.964;6.952;2023-01-28T03:33:11;16.85;;;9.27;;
51304;SDS011;37392;50.964;6.952;2023-01-28T03:35:56;19.42;;;10.63;;
51304;SDS011;37392;50.964;6.952;2023-01-28T03:38:40;14.10;;;9.05;;
51304;SDS011;37392;50.964;6.952;2023-01-28T03:41:09;16.23;;;8.85;;
51304;SDS011;37392;50.964;6.952;2023-01-28T03:43:35;18.50;;;9.85;;
51304;SDS011;37392;50.964;6.952;2023-01-28T03:46:01;15.55;;;10.52;;
51304;SDS011;37392;50.964;6.952;2023-01-28T03:48:30;18.35;;;9.18;;
51304;SDS011;37392;50.964;6.952;2023-01-28T03:50:57;14.48;;;9.95;;
51304;SDS011;37392;50.964;6.952;2023-01-28T03:53:26;15.13;;;9.32;;
51304;SDS011;37392;50.964;6.952;2023-01-28T03:55:52;17.73;;;9.55;;
51304;SDS011;37392;50.964;6.952;2023-01-28T03:58:20;15.20;;;10.32;;
51304;SDS011;37392;50.964;6.952;2023-01-28T04:00:51;16.20;;;10.20;;
51304;SDS011;37392;50.964;6.952;2023-01-28T04:03:19;17.15;;;9.68;;
51304;SDS011;37392;50.964;6.952;2023-01-28T04:08:11;19.38;;;9.85;;
51304;SDS011;37392;50.964;6.952;2023-01-28T04:10:38;20.65;;;10.48;;
51304;SDS011;37392;50.964;6.952;2023-01-28T04:13:05;17.35;;;10.40;;
51304;SDS011;37392;50.964;6.952;2023-01-28T04:15:31;18.40;;;10.35;;
51304;SDS011;37392;50.964;6.952;2023-01-28T04:17:57;22.30;;;12.68;;
51304;SDS011;37392;50.964;6.952;2023-01-28T04:20:24;15.68;;;9.70;;
51304;SDS011;37392;50.964;6.952;2023-01-28T04:22:50;14.40;;;8.80;;
51304;SDS011;37392;50.964;6.952;2023-01-28T04:25:16;20.20;;;10.32;;
51304;SDS011;37392;50.964;6.952;2023-01-28T04:27:42;17.13;;;9.60;;
51304;SDS011;37392;50.964;6.952;2023-01-28T04:30:07;14.52;;;8.40;;
51304;SDS011;37392;50.964;6.952;2023-01-28T04:32:38;17.13;;;8.25;;
51304;SDS011;37392;50.964;6.952;2023-01-28T04:35:03;16.00;;;8.32;;
51304;SDS011;37392;50.964;6.952;2023-01-28T04:37:29;12.63;;;8.00;;
51304;SDS011;37392;50.964;6.952;2023-01-28T04:39:55;11.52;;;8.20;;
51304;SDS011;37392;50.964;6.952;2023-01-28T04:42:20;18.25;;;7.43;;
51304;SDS011;37392;50.964;6.952;2023-01-28T04:44:46;13.43;;;8.15;;
51304;SDS011;37392;50.964;6.952;2023-01-28T04:47:11;11.43;;;8.13;;
51304;SDS011;37392;50.964;6.952;2023-01-28T04:49:37;11.77;;;6.97;;
51304;SDS011;37392;50.964;6.952;2023-01-28T04:52:02;10.68;;;7.63;;
51304;SDS011;37392;50.964;6.952;2023-01-28T04:54:28;13.18;;;7.15;;
51304;SDS011;37392;50.964;6.952;2023-01-28T04:56:54;10.93;;;6.95;;
51304;SDS011;37392;50.964;6.952;2023-01-28T04:59:20;12.48;;;6.50;;
51304;SDS011;37392;50.964;6.952;2023-01-28T05:01:47;9.93;;;6.57;;
51304;SDS011;37392;50.964;6.952;2023-01-28T05:04:13;8.95;;;5.97;;
51304;SDS011;37392;50.964;6.952;2023-01-28T05:06:41;15.07;;;7.00;;
51304;SDS011;37392;50.964;6.952;2023-01-28T05:09:07;10.32;;;6.30;;
51304;SDS011;37392;50.964;6.952;2023-01-28T05:11:33;10.55;;;6.38;;
51304;SDS011;37392;50.964;6.952;2023-01-28T05:13:58;13.48;;;8.30;;
51304;SDS011;37392;50.964;6.952;2023-01-28T05:16:24;11.15;;;6.35;;
51304;SDS011;37392;50.964;6.952;2023-01-28T05:18:50;9.27;;;6.10;;
51304;SDS011;37392;50.964;6.952;2023-01-28T05:21:15;14.18;;;7.30;;
51304;SDS011;37392;50.964;6.952;2023-01-28T05:23:42;14.13;;;6.85;;
51304;SDS011;37392;50.964;6.952;2023-01-28T05:26:08;10.48;;;6.15;;
51304;SDS011;37392;50.964;6.952;2023-01-28T05:28:34;9.07;;;6.53;;
51304;SDS011;37392;50.964;6.952;2023-01-28T05:31:03;10.90;;;6.07;;
51304;SDS011;37392;50.964;6.952;2023-01-28T05:33:31;10.23;;;5.13;;
51304;SDS011;37392;50.964;6.952;2023-01-28T05:35:57;10.88;;;6.57;;
51304;SDS011;37392;50.964;6.952;2023-01-28T05:38:23;11.30;;;6.10;;
51304;SDS011;37392;50.964;6.952;2023-01-28T05:40:49;10.20;;;6.50;;
51304;SDS011;37392;50.964;6.952;2023-01-28T05:43:14;10.13;;;6.13;;
51304;SDS011;37392;50.964;6.952;2023-01-28T05:45:40;8.80;;;6.13;;
51304;SDS011;37392;50.964;6.952;2023-01-28T05:48:06;10.60;;;6.40;;
51304;SDS011;37392;50.964;6.952;2023-01-28T05:50:32;10.27;;;5.80;;
51304;SDS011;37392;50.964;6.952;2023-01-28T05:52:57;9.73;;;6.38;;
51304;SDS011;37392;50.964;6.952;2023-01-28T05:55:23;10.25;;;6.25;;
51304;SDS011;37392;50.964;6.952;2023-01-28T05:57:49;8.75;;;5.28;;
51304;SDS011;37392;50.964;6.952;2023-01-28T06:00:15;9.88;;;6.63;;
51304;SDS011;37392;50.964;6.952;2023-01-28T06:02:41;7.82;;;6.50;;
51304;SDS011;37392;50.964;6.952;2023-01-28T06:05:07;8.70;;;6.18;;
51304;SDS011;37392;50.964;6.952;2023-01-28T06:07:34;12.05;;;6.82;;
51304;SDS011;37392;50.964;6.952;2023-01-28T06:09:59;8.38;;;5.82;;
51304;SDS011;37392;50.964;6.952;2023-01-28T06:12:25;7.85;;;5.65;;
51304;SDS011;37392;50.964;6.952;2023-01-28T06:14:51;10.40;;;6.40;;
51304;SDS011;37392;50.964;6.952;2023-01-28T06:17:16;11.85;;;7.20;;
51304;SDS011;37392;50.964;6.952;2023-01-28T06:19:42;8.50;;;6.30;;
51304;SDS011;37392;50.964;6.952;2023-01-28T06:22:08;10.60;;;6.35;;
51304;SDS011;37392;50.964;6.952;2023-01-28T06:24:34;14.88;;;6.50;;
51304;SDS011;37392;50.964;6.952;2023-01-28T06:26:59;12.00;;;7.28;;
51304;SDS011;37392;50.964;6.952;2023-01-28T06:29:25;8.82;;;6.70;;
51304;SDS011;37392;50.964;6.952;2023-01-28T06:31:51;13.20;;;7.95;;
51304;SDS011;37392;50.964;6.952;2023-01-28T06:34:17;14.10;;;9.15;;
51304;SDS011;37392;50.964;6.952;2023-01-28T06:36:42;11.68;;;7.22;;
51304;SDS011;37392;50.964;6.952;2023-01-28T06:39:08;11.25;;;7.10;;
51304;SDS011;37392;50.964;6.952;2023-01-28T06:41:33;14.57;;;7.50;;
51304;SDS011;37392;50.964;6.952;2023-01-28T06:43:59;10.13;;;7.10;;
51304;SDS011;37392;50.964;6.952;2023-01-28T06:46:25;9.93;;;6.68;;
51304;SDS011;37392;50.964;6.952;2023-01-28T06:48:50;13.45;;;8.05;;
51304;SDS011;37392;50.964;6.952;2023-01-28T06:51:16;10.15;;;6.25;;
51304;SDS011;37392;50.964;6.952;2023-01-28T06:53:41;12.57;;;5.78;;
51304;SDS011;37392;50.964;6.952;2023-01-28T06:56:08;10.75;;;6.00;;
51304;SDS011;37392;50.964;6.952;2023-01-28T06:58:34;11.73;;;6.22;;
51304;SDS011;37392;50.964;6.952;2023-01-28T07:00:59;8.65;;;6.45;;
51304;SDS011;37392;50.964;6.952;2023-01-28T07:03:25;9.27;;;5.90;;
51304;SDS011;37392;50.964;6.952;2023-01-28T07:05:51;18.02;;;6.50;;
51304;SDS011;37392;50.964;6.952;2023-01-28T07:08:16;9.82;;;6.63;;
51304;SDS011;37392;50.964;6.952;2023-01-28T07:10:42;11.35;;;6.10;;
51304;SDS011;37392;50.964;6.952;2023-01-28T07:13:08;10.63;;;6.50;;
51304;SDS011;37392;50.964;6.952;2023-01-28T07:15:34;13.48;;;6.68;;
51304;SDS011;37392;50.964;6.952;2023-01-28T07:18:00;8.68;;;6.60;;
51304;SDS011;37392;50.964;6.952;2023-01-28T07:20:26;11.68;;;6.93;;
51304;SDS011;37392;50.964;6.952;2023-01-28T07:22:52;13.55;;;6.03;;
51304;SDS011;37392;50.964;6.952;2023-01-28T07:25:18;20.05;;;10.18;;
51304;SDS011;37392;50.964;6.952;2023-01-28T07:27:45;44.33;;;23.77;;
51304;SDS011;37392;50.964;6.952;2023-01-28T07:30:20;22.80;;;9.88;;
51304;SDS011;37392;50.964;6.952;2023-01-28T07:32:46;11.43;;;8.10;;
51304;SDS011;37392;50.964;6.952;2023-01-28T07:35:20;11.45;;;7.88;;
51304;SDS011;37392;50.964;6.952;2023-01-28T07:37:53;8.90;;;6.82;;
51304;SDS011;37392;50.964;6.952;2023-01-28T07:40:21;12.82;;;7.57;;
51304;SDS011;37392;50.964;6.952;2023-01-28T07:42:48;17.13;;;8.50;;
51304;SDS011;37392;50.964;6.952;2023-01-28T07:45:14;14.82;;;7.63;;
51304;SDS011;37392;50.964;6.952;2023-01-28T07:47:40;14.88;;;9.00;;
51304;SDS011;37392;50.964;6.952;2023-01-28T07:50:06;10.40;;;7.75;;
51304;SDS011;37392;50.964;6.952;2023-01-28T07:52:35;11.98;;;8.55;;
51304;SDS011;37392;50.964;6.952;2023-01-28T07:55:08;14.02;;;9.52;;
51304;SDS011;37392;50.964;6.952;2023-01-28T07:57:36;16.88;;;10.55;;
51304;SDS011;37392;50.964;6.952;2023-01-28T08:00:02;20.00;;;9.65;;
51304;SDS011;37392;50.964;6.952;2023-01-28T08:02:28;14.95;;;9.80;;
51304;SDS011;37392;50.964;6.952;2023-01-28T08:04:54;17.58;;;11.23;;
51304;SDS011;37392;50.964;6.952;2023-01-28T08:07:23;20.05;;;11.32;;
51304;SDS011;37392;50.964;6.952;2023-01-28T08:09:49;19.63;;;10.40;;
51304;SDS011;37392;50.964;6.952;2023-01-28T08:12:15;18.02;;;11.25;;
51304;SDS011;37392;50.964;6.952;2023-01-28T08:14:41;19.75;;;12.30;;
51304;SDS011;37392;50.964;6.952;2023-01-28T08:17:08;14.43;;;10.25;;
51304;SDS011;37392;50.964;6.952;2023-01-28T08:19:33;13.75;;;9.43;;
51304;SDS011;37392;50.964;6.952;2023-01-28T08:21:59;18.38;;;10.18;;
51304;SDS011;37392;50.964;6.952;2023-01-28T08:24:24;13.25;;;9.13;;
51304;SDS011;37392;50.964;6.952;2023-01-28T08:26:50;14.30;;;9.95;;
51304;SDS011;37392;50.964;6.952;2023-01-28T08:29:16;14.70;;;10.27;;
51304;SDS011;37392;50.964;6.952;2023-01-28T08:31:41;17.60;;;9.05;;
51304;SDS011;37392;50.964;6.952;2023-01-28T08:34:07;15.65;;;8.95;;
51304;SDS011;37392;50.964;6.952;2023-01-28T08:36:33;11.65;;;8.35;;
51304;SDS011;37392;50.964;6.952;2023-01-28T08:38:58;16.20;;;9.05;;
51304;SDS011;37392;50.964;6.952;2023-01-28T08:41:24;14.40;;;9.18;;
51304;SDS011;37392;50.964;6.952;2023-01-28T08:43:49;14.40;;;8.80;;
51304;SDS011;37392;50.964;6.952;2023-01-28T08:46:15;13.80;;;8.93;;
51304;SDS011;37392;50.964;6.952;2023-01-28T08:48:40;15.98;;;9.43;;
51304;SDS011;37392;50.964;6.952;2023-01-28T08:51:06;16.65;;;8.50;;
51304;SDS011;37392;50.964;6.952;2023-01-28T08:53:32;11.57;;;8.30;;
51304;SDS011;37392;50.964;6.952;2023-01-28T08:55:58;17.67;;;8.02;;
51304;SDS011;37392;50.964;6.952;2023-01-28T08:58:24;9.60;;;7.35;;
51304;SDS011;37392;50.964;6.952;2023-01-28T09:00:49;11.57;;;7.68;;
51304;SDS011;37392;50.964;6.952;2023-01-28T09:03:16;15.18;;;7.18;;
51304;SDS011;37392;50.964;6.952;2023-01-28T09:05:42;12.85;;;7.53;;
51304;SDS011;37392;50.964;6.952;2023-01-28T09:08:10;9.93;;;7.47;;
51304;SDS011;37392;50.964;6.952;2023-01-28T09:10:38;12.05;;;8.82;;
51304;SDS011;37392;50.964;6.952;2023-01-28T09:13:10;12.57;;;8.35;;
51304;SDS011;37392;50.964;6.952;2023-01-28T09:15:39;12.18;;;8.68;;
51304;SDS011;37392;50.964;6.952;2023-01-28T09:18:05;14.20;;;8.07;;
51304;SDS011;37392;50.964;6.952;2023-01-28T09:20:30;10.57;;;7.80;;
51304;SDS011;37392;50.964;6.952;2023-01-28T09:22:57;12.10;;;8.80;;
51304;SDS011;37392;50.964;6.952;2023-01-28T09:25:23;12.55;;;7.00;;
51304;SDS011;37392;50.964;6.952;2023-01-28T09:27:49;10.60;;;7.90;;
51304;SDS011;37392;50.964;6.952;2023-01-28T09:30:14;11.30;;;7.57;;
51304;SDS011;37392;50.964;6.952;2023-01-28T09:32:40;8.45;;;6.90;;
51304;SDS011;37392;50.964;6.952;2023-01-28T09:35:06;8.50;;;6.47;;
51304;SDS011;37392;50.964;6.952;2023-01-28T09:37:32;9.40;;;6.60;;
51304;SDS011;37392;50.964;6.952;2023-01-28T09:39:58;11.02;;;6.93;;
51304;SDS011;37392;50.964;6.952;2023-01-28T09:42:34;12.43;;;6.75;;
51304;SDS011;37392;50.964;6.952;2023-01-28T09:45:50;11.63;;;7.78;;
51304;SDS011;37392;50.964;6.952;2023-01-28T09:48:24;10.98;;;7.60;;
51304;SDS011;37392;50.964;6.952;2023-01-28T09:50:57;11.10;;;6.75;;
51304;SDS011;37392;50.964;6.952;2023-01-28T09:53:27;13.05;;;9.40;;
51304;SDS011;37392;50.964;6.952;2023-01-28T09:56:03;18.73;;;10.60;;
51304;SDS011;37392;50.964;6.952;2023-01-28T09:58:35;14.50;;;9.45;;
51304;SDS011;37392;50.964;6.952;2023-01-28T10:09:08;19.42;;;13.82;;
51304;SDS011;37392;50.964;6.952;2023-01-28T10:18:13;22.83;;;14.77;;
51304;SDS011;37392;50.964;6.952;2023-01-28T10:20:41;20.42;;;13.60;;
51304;SDS011;37392;50.964;6.952;2023-01-28T10:23:15;27.20;;;16.40;;
51304;SDS011;37392;50.964;6.952;2023-01-28T10:26:00;32.92;;;17.83;;
51304;SDS011;37392;50.964;6.952;2023-01-28T10:28:36;26.98;;;16.73;;
51304;SDS011;37392;50.964;6.952;2023-01-28T10:31:04;39.97;;;21.20;;
51304;SDS011;37392;50.964;6.952;2023-01-28T10:33:36;30.40;;;16.60;;
51304;SDS011;37392;50.964;6.952;2023-01-28T10:36:04;26.17;;;16.23;;
51304;SDS011;37392;50.964;6.952;2023-01-28T10:38:31;27.20;;;16.40;;
51304;SDS011;37392;50.964;6.952;2023-01-28T10:40:59;21.40;;;14.13;;
51304;SDS011;37392;50.964;6.952;2023-01-28T10:43:29;27.35;;;16.58;;
51304;SDS011;37392;50.964;6.952;2023-01-28T10:46:05;25.83;;;15.95;;
51304;SDS011;37392;50.964;6.952;2023-01-28T10:48:53;23.92;;;15.43;;
51304;SDS011;37392;50.964;6.952;2023-01-28T10:51:30;25.45;;;16.70;;
51304;SDS011;37392;50.964;6.952;2023-01-28T10:54:01;27.20;;;17.77;;
51304;SDS011;37392;50.964;6.952;2023-01-28T10:56:31;25.88;;;15.10;;
51304;SDS011;37392;50.964;6.952;2023-01-28T10:59:03;36.85;;;17.98;;
51304;SDS011;37392;50.964;6.952;2023-01-28T11:04:16;23.75;;;15.38;;
51304;SDS011;37392;50.964;6.952;2023-01-28T11:06:50;30.50;;;18.13;;
51304;SDS011;37392;50.964;6.952;2023-01-28T11:09:22;21.38;;;14.80;;
51304;SDS011;37392;50.964;6.952;2023-01-28T11:12:08;26.52;;;16.17;;
51304;SDS011;37392;50.964;6.952;2023-01-28T11:14:52;26.50;;;17.00;;
51304;SDS011;37392;50.964;6.952;2023-01-28T11:19:55;25.48;;;15.95;;
51304;SDS011;37392;50.964;6.952;2023-01-28T11:22:31;30.80;;;17.90;;
51304;SDS011;37392;50.964;6.952;2023-01-28T11:25:05;26.52;;;16.30;;
51304;SDS011;37392;50.964;6.952;2023-01-28T11:27:45;27.73;;;18.10;;
51304;SDS011;37392;50.964;6.952;2023-01-28T11:30:23;30.65;;;18.67;;
51304;SDS011;37392;50.964;6.952;2023-01-28T11:33:01;34.60;;;18.13;;
51304;SDS011;37392;50.964;6.952;2023-01-28T11:38:13;28.67;;;17.20;;
51304;SDS011;37392;50.964;6.952;2023-01-28T11:40:50;28.70;;;18.63;;
51304;SDS011;37392;50.964;6.952;2023-01-28T11:43:16;29.33;;;18.08;;
51304;SDS011;37392;50.964;6.952;2023-01-28T11:54:43;25.55;;;17.38;;
51304;SDS011;37392;50.964;6.952;2023-01-28T11:57:49;25.70;;;16.58;;
51304;SDS011;37392;50.964;6.952;2023-01-28T12:00:36;23.02;;;14.95;;
51304;SDS011;37392;50.964;6.952;2023-01-28T12:06:14;28.27;;;16.67;;
51304;SDS011;37392;50.964;6.952;2023-01-28T12:09:32;26.15;;;16.00;;
51304;SDS011;37392;50.964;6.952;2023-01-28T12:12:15;25.88;;;16.48;;
51304;SDS011;37392;50.964;6.952;2023-01-28T12:18:33;29.45;;;16.90;;
51304;SDS011;37392;50.964;6.952;2023-01-28T12:24:49;29.77;;;18.15;;
51304;SDS011;37392;50.964;6.952;2023-01-28T12:33:30;33.63;;;19.25;;
51304;SDS011;37392;50.964;6.952;2023-01-28T12:42:03;26.48;;;18.27;;
51304;SDS011;37392;50.964;6.952;2023-01-28T12:44:58;30.98;;;17.00;;
51304;SDS011;37392;50.964;6.952;2023-01-28T12:47:42;27.45;;;17.17;;
51304;SDS011;37392;50.964;6.952;2023-01-28T12:50:19;27.13;;;16.25;;
51304;SDS011;37392;50.964;6.952;2023-01-28T12:53:00;27.00;;;17.08;;
51304;SDS011;37392;50.964;6.952;2023-01-28T12:55:39;23.02;;;14.80;;
51304;SDS011;37392;50.964;6.952;2023-01-28T12:58:52;28.17;;;16.08;;
51304;SDS011;37392;50.964;6.952;2023-01-28T13:01:13;25.77;;;15.48;;
51304;SDS011;37392;50.964;6.952;2023-01-28T13:03:55;31.33;;;15.35;;
51304;SDS011;37392;50.964;6.952;2023-01-28T13:06:46;28.02;;;17.15;;
51304;SDS011;37392;50.964;6.952;2023-01-28T13:09:17;31.60;;;17.08;;
51304;SDS011;37392;50.964;6.952;2023-01-28T13:11:46;30.02;;;17.27;;
51304;SDS011;37392;50.964;6.952;2023-01-28T13:14:16;27.13;;;16.55;;
51304;SDS011;37392;50.964;6.952;2023-01-28T13:16:42;30.20;;;16.92;;
51304;SDS011;37392;50.964;6.952;2023-01-28T13:21:43;27.15;;;15.38;;
51304;SDS011;37392;50.964;6.952;2023-01-28T13:26:51;27.20;;;17.10;;
51304;SDS011;37392;50.964;6.952;2023-01-28T13:31:49;30.95;;;15.55;;
51304;SDS011;37392;50.964;6.952;2023-01-28T13:40:19;27.08;;;15.90;;
51304;SDS011;37392;50.964;6.952;2023-01-28T13:43:00;28.70;;;15.98;;
51304;SDS011;37392;50.964;6.952;2023-01-28T13:45:58;33.65;;;17.40;;
51304;SDS011;37392;50.964;6.952;2023-01-28T13:48:47;27.98;;;16.20;;
51304;SDS011;37392;50.964;6.952;2023-01-28T13:51:19;21.35;;;13.02;;
51304;SDS011;37392;50.964;6.952;2023-01-28T14:02:26;24.20;;;13.30;;
51304;SDS011;37392;50.964;6.952;2023-01-28T14:05:37;20.15;;;11.65;;
51304;SDS011;37392;50.964;6.952;2023-01-28T14:14:23;14.38;;;10.13;;
51304;SDS011;37392;50.964;6.952;2023-01-28T14:17:45;21.60;;;12.57;;
51304;SDS011;37392;50.964;6.952;2023-01-28T14:23:00;27.95;;;16.17;;
51304;SDS011;37392;50.964;6.952;2023-01-28T14:25:32;26.27;;;15.07;;
51304;SDS011;37392;50.964;6.952;2023-01-28T14:28:08;22.55;;;12.55;;
51304;SDS011;37392;50.964;6.952;2023-01-28T14:30:54;21.70;;;12.75;;
51304;SDS011;37392;50.964;6.952;2023-01-28T14:33:51;23.10;;;12.45;;
51304;SDS011;37392;50.964;6.952;2023-01-28T14:36:17;22.67;;;10.82;;
51304;SDS011;37392;50.964;6.952;2023-01-28T14:38:43;26.00;;;13.02;;
51304;SDS011;37392;50.964;6.952;2023-01-28T14:41:16;24.48;;;12.25;;
51304;SDS011;37392;50.964;6.952;2023-01-28T14:43:52;24.95;;;13.05;;
51304;SDS011;37392;50.964;6.952;2023-01-28T14:46:31;21.05;;;14.20;;
51304;SDS011;37392;50.964;6.952;2023-01-28T14:49:24;26.85;;;14.73;;
51304;SDS011;37392;50.964;6.952;2023-01-28T14:52:23;27.73;;;14.20;;
51304;SDS011;37392;50.964;6.952;2023-01-28T14:58:34;26.65;;;13.45;;
51304;SDS011;37392;50.964;6.952;2023-01-28T15:00:58;24.67;;;15.23;;
51304;SDS011;37392;50.964;6.952;2023-01-28T15:03:25;26.52;;;14.95;;
51304;SDS011;37392;50.964;6.952;2023-01-28T15:09:05;31.77;;;15.48;;
51304;SDS011;37392;50.964;6.952;2023-01-28T15:11:34;24.90;;;14.60;;
51304;SDS011;37392;50.964;6.952;2023-01-28T15:14:03;25.07;;;11.57;;
51304;SDS011;37392;50.964;6.952;2023-01-28T15:16:37;32.65;;;14.02;;
51304;SDS011;37392;50.964;6.952;2023-01-28T15:19:04;24.10;;;13.02;;
51304;SDS011;37392;50.964;6.952;2023-01-28T15:21:33;22.00;;;13.60;;
51304;SDS011;37392;50.964;6.952;2023-01-28T15:23:59;23.35;;;12.40;;
51304;SDS011;37392;50.964;6.952;2023-01-28T15:26:30;38.13;;;19.65;;
51304;SDS011;37392;50.964;6.952;2023-01-28T15:28:58;32.38;;;13.98;;
51304;SDS011;37392;50.964;6.952;2023-01-28T15:31:32;32.45;;;15.20;;
51304;SDS011;37392;50.964;6.952;2023-01-28T15:36:40;29.75;;;14.77;;
51304;SDS011;37392;50.964;6.952;2023-01-28T15:39:13;34.45;;;16.17;;
51304;SDS011;37392;50.964;6.952;2023-01-28T15:41:46;33.58;;;16.50;;
51304;SDS011;37392;50.964;6.952;2023-01-28T15:44:17;32.30;;;16.70;;
51304;SDS011;37392;50.964;6.952;2023-01-28T15:47:01;28.85;;;15.30;;
51304;SDS011;37392;50.964;6.952;2023-01-28T15:49:41;30.10;;;14.77;;
51304;SDS011;37392;50.964;6.952;2023-01-28T15:52:11;34.10;;;17.10;;
51304;SDS011;37392;50.964;6.952;2023-01-28T15:54:41;33.28;;;16.60;;
51304;SDS011;37392;50.964;6.952;2023-01-28T15:57:21;48.10;;;20.85;;
51304;SDS011;37392;50.964;6.952;2023-01-28T16:02:30;37.33;;;18.88;;
51304;SDS011;37392;50.964;6.952;2023-01-28T16:05:01;36.38;;;17.83;;
51304;SDS011;37392;50.964;6.952;2023-01-28T16:07:32;32.30;;;16.42;;
51304;SDS011;37392;50.964;6.952;2023-01-28T16:10:15;34.45;;;18.05;;
51304;SDS011;37392;50.964;6.952;2023-01-28T16:12:49;40.95;;;19.58;;
51304;SDS011;37392;50.964;6.952;2023-01-28T16:15:18;36.13;;;17.92;;
51304;SDS011;37392;50.964;6.952;2023-01-28T16:17:46;43.63;;;20.38;;
51304;SDS011;37392;50.964;6.952;2023-01-28T16:20:20;41.28;;;19.77;;
51304;SDS011;37392;50.964;6.952;2023-01-28T16:22:53;69.80;;;29.27;;
51304;SDS011;37392;50.964;6.952;2023-01-28T16:27:53;43.72;;;20.50;;
51304;SDS011;37392;50.964;6.952;2023-01-28T16:30:20;46.40;;;21.25;;
51304;SDS011;37392;50.964;6.952;2023-01-28T16:32:46;53.10;;;25.42;;
51304;SDS011;37392;50.964;6.952;2023-01-28T16:35:19;52.17;;;23.05;;
51304;SDS011;37392;50.964;6.952;2023-01-28T16:37:47;43.65;;;21.98;;
51304;SDS011;37392;50.964;6.952;2023-01-28T16:40:14;50.03;;;23.30;;
51304;SDS011;37392;50.964;6.952;2023-01-28T16:42:46;45.83;;;22.17;;
51304;SDS011;37392;50.964;6.952;2023-01-28T16:45:22;50.40;;;21.83;;
51304;SDS011;37392;50.964;6.952;2023-01-28T16:47:49;59.03;;;27.23;;
51304;SDS011;37392;50.964;6.952;2023-01-28T16:50:19;52.10;;;24.73;;
51304;SDS011;37392;50.964;6.952;2023-01-28T16:52:46;51.97;;;24.55;;
51304;SDS011;37392;50.964;6.952;2023-01-28T16:55:16;43.50;;;23.10;;
51304;SDS011;37392;50.964;6.952;2023-01-28T16:57:45;45.30;;;22.90;;
51304;SDS011;37392;50.964;6.952;2023-01-28T17:00:17;49.40;;;24.20;;